Time;durP1;ratioP1;P1;durP2;ratioP2;P2;SDS_P1;SDS_P2;PMS_P1;PMS_P2;Temp;Humidity;BMP_temperature;BMP_pressure;BME280_temperature;BME280_humidity;BME280_pressure;Samples;Min_cycle;Max_cycle;Signal;HPM_P1;HPM_P2
2021/07/25 00:00:12;;;;;;;11.67;9.80;;;18.60;99.90;;;;;;4958604;29;20181;-76
2021/07/25 04:31:55;;;;;;;14.77;10.00;;;17.70;99.90;;;;;;5547993;23;20514;-77
2021/07/25 04:34:21;;;;;;;11.27;10.07;;;17.80;99.90;;;;;;4950287;28;20495;-77
2021/07/25 04:36:47;;;;;;;10.57;9.47;;;17.80;99.90;;;;;;4945236;29;20448;-78
2021/07/25 04:39:13;;;;;;;11.33;8.67;;;17.80;99.90;;;;;;4956149;28;20404;-77
2021/07/25 04:41:46;;;;;;;11.43;9.00;;;17.80;99.90;;;;;;4951934;28;20289;-76
2021/07/25 04:44:11;;;;;;;16.23;9.33;;;17.80;99.90;;;;;;4954972;28;20299;-79
2021/07/25 04:46:45;;;;;;;9.70;8.73;;;17.90;99.90;;;;;;4956003;29;20495;-78
2021/07/25 04:49:12;;;;;;;10.23;9.10;;;17.90;99.90;;;;;;4951107;29;20200;-77
2021/07/25 04:51:39;;;;;;;13.77;10.53;;;17.90;99.90;;;;;;4948577;28;20543;-78
2021/07/25 04:54:11;;;;;;;12.03;9.57;;;17.90;99.90;;;;;;4950955;29;20428;-78
2021/07/25 04:56:57;;;;;;;10.90;9.93;;;18.00;99.90;;;;;;4956914;28;20416;-79
2021/07/25 04:59:46;;;;;;;17.33;9.47;;;18.00;99.90;;;;;;4948286;28;20435;-76
2021/07/25 05:02:14;;;;;;;12.50;10.07;;;18.00;99.90;;;;;;4956079;28;20502;-77
2021/07/25 05:04:40;;;;;;;11.33;9.37;;;18.10;99.90;;;;;;4945535;28;20444;-78
2021/07/25 05:07:09;;;;;;;10.50;9.40;;;18.10;99.90;;;;;;4950374;28;20854;-75
2021/07/25 05:09:35;;;;;;;10.77;9.67;;;18.20;99.90;;;;;;4950364;29;20444;-76
2021/07/25 05:12:10;;;;;;;15.53;9.30;;;18.20;99.90;;;;;;4949670;29;20519;-76
2021/07/25 05:14:51;;;;;;;11.80;10.37;;;18.20;99.90;;;;;;4951408;29;20180;-77
2021/07/25 05:17:56;;;;;;;9.67;8.67;;;18.30;99.90;;;;;;4948814;29;20424;-78
2021/07/25 05:20:31;;;;;;;14.47;10.53;;;18.30;99.90;;;;;;4917923;29;20439;-77
2021/07/25 05:23:06;;;;;;;11.47;10.27;;;18.30;99.90;;;;;;4949374;28;20612;-76
2021/07/25 05:25:32;;;;;;;13.50;9.00;;;18.40;99.90;;;;;;4953870;28;20447;-78
2021/07/25 05:28:04;;;;;;;15.40;9.47;;;18.30;99.90;;;;;;4951767;28;20467;-78
2021/07/25 05:30:31;;;;;;;10.57;9.27;;;18.40;99.90;;;;;;4947793;28;20959;-78
2021/07/25 05:32:56;;;;;;;11.33;9.73;;;18.40;99.90;;;;;;4918813;29;21018;-77
2021/07/25 05:35:22;;;;;;;13.00;9.07;;;18.40;99.90;;;;;;4938412;29;20521;-78
2021/07/25 05:37:47;;;;;;;21.20;10.20;;;18.40;99.90;;;;;;4938687;29;20716;-77
2021/07/25 05:40:14;;;;;;;9.43;8.53;;;18.50;99.90;;;;;;4957006;28;20193;-76
2021/07/25 05:42:40;;;;;;;12.50;9.07;;;18.50;99.90;;;;;;4950727;28;20236;-78
2021/07/25 05:45:08;;;;;;;9.20;8.30;;;18.50;99.90;;;;;;4955820;28;20494;-76
2021/07/25 05:47:37;;;;;;;10.03;9.03;;;18.50;99.90;;;;;;4945960;29;20442;-79
2021/07/25 05:50:05;;;;;;;9.37;8.47;;;18.50;99.90;;;;;;4919199;29;20512;-76
2021/07/25 05:52:48;;;;;;;8.87;7.97;;;18.60;99.90;;;;;;4938269;29;20456;-78
2021/07/25 05:55:21;;;;;;;10.20;7.87;;;18.70;99.90;;;;;;4957559;28;20423;-79
2021/07/25 05:57:47;;;;;;;9.80;7.87;;;18.70;99.90;;;;;;4955690;29;20455;-79
2021/07/25 06:00:13;;;;;;;8.60;7.37;;;18.80;99.90;;;;;;4952425;28;20452;-80
2021/07/25 06:02:59;;;;;;;9.63;7.60;;;18.80;99.90;;;;;;4952582;29;20213;-79
2021/07/25 06:05:26;;;;;;;8.33;7.50;;;18.80;99.90;;;;;;4920611;29;20429;-78
2021/07/25 06:07:52;;;;;;;14.13;8.50;;;18.80;99.90;;;;;;4949092;29;20436;-78
2021/07/25 06:10:18;;;;;;;12.10;8.07;;;18.80;99.90;;;;;;4951953;29;20514;-78
2021/07/25 06:12:44;;;;;;;10.20;8.50;;;18.80;99.90;;;;;;4958503;29;20436;-78
2021/07/25 06:15:10;;;;;;;8.40;7.60;;;18.90;99.90;;;;;;4952798;28;20439;-79
2021/07/25 06:17:36;;;;;;;8.47;7.63;;;18.90;99.90;;;;;;4959493;29;20622;-78
2021/07/25 06:20:03;;;;;;;9.10;8.20;;;19.00;99.90;;;;;;4935478;28;20448;-79
2021/07/25 06:22:45;;;;;;;9.13;8.30;;;19.10;99.90;;;;;;4942608;29;20205;-78
2021/07/25 06:25:14;;;;;;;10.17;8.30;;;19.10;99.90;;;;;;4952295;28;20523;-78
2021/07/25 06:27:40;;;;;;;11.77;7.90;;;19.10;99.90;;;;;;4958431;29;20928;-78
2021/07/25 06:30:08;;;;;;;8.67;7.33;;;19.10;99.90;;;;;;4954159;28;20496;-79
2021/07/25 06:32:57;;;;;;;8.00;7.00;;;19.20;99.90;;;;;;4951459;28;20483;-76
2021/07/25 06:35:28;;;;;;;7.77;7.17;;;19.20;99.90;;;;;;4941185;29;20437;-77
2021/07/25 06:37:55;;;;;;;10.43;8.67;;;19.40;99.90;;;;;;4955598;29;20486;-79
2021/07/25 06:40:21;;;;;;;8.43;7.63;;;19.50;99.90;;;;;;4954484;29;20432;-79
2021/07/25 06:42:46;;;;;;;14.90;9.10;;;19.70;99.90;;;;;;4953335;29;20459;-76
2021/07/25 06:45:12;;;;;;;8.73;6.80;;;19.80;99.90;;;;;;4959320;28;20424;-79
2021/07/25 06:47:38;;;;;;;6.77;6.07;;;19.90;99.90;;;;;;4923064;28;20201;-78
2021/07/25 06:50:03;;;;;;;6.60;6.00;;;19.90;99.90;;;;;;4919609;29;20682;-79
2021/07/25 06:52:29;;;;;;;9.97;7.10;;;20.00;99.90;;;;;;4931245;29;20208;-79
2021/07/25 06:54:55;;;;;;;9.23;7.43;;;20.20;99.90;;;;;;4938277;29;20655;-79
2021/07/25 06:57:20;;;;;;;9.20;8.30;;;20.40;99.90;;;;;;4942022;28;20557;-78
2021/07/25 06:59:45;;;;;;;9.80;8.20;;;20.60;99.90;;;;;;4948340;29;20185;-79
2021/07/25 07:02:11;;;;;;;7.80;7.00;;;20.90;99.90;;;;;;4940960;29;20554;-78
2021/07/25 07:04:37;;;;;;;7.47;6.73;;;21.10;99.90;;;;;;4950308;29;20717;-77
2021/07/25 07:07:02;;;;;;;10.23;6.70;;;21.40;99.90;;;;;;4928886;29;20230;-78
2021/07/25 07:09:28;;;;;;;8.73;7.87;;;21.60;99.90;;;;;;4936683;29;20287;-79
2021/07/25 07:11:53;;;;;;;11.30;8.30;;;21.80;99.90;;;;;;4919330;29;20206;-78
2021/07/25 07:14:19;;;;;;;8.43;6.93;;;22.10;99.90;;;;;;4916837;29;20178;-78
2021/07/25 07:16:44;;;;;;;9.87;7.90;;;22.10;99.90;;;;;;4917525;29;20185;-79
2021/07/25 07:19:10;;;;;;;7.90;7.20;;;22.20;99.90;;;;;;4916990;29;20179;-79
2021/07/25 07:21:35;;;;;;;7.50;6.60;;;22.10;99.90;;;;;;4918621;29;20249;-79
2021/07/25 07:24:01;;;;;;;8.03;6.00;;;22.20;99.90;;;;;;4920073;29;20233;-80
2021/07/25 07:26:26;;;;;;;9.00;6.40;;;22.40;99.90;;;;;;4919715;29;20297;-77
2021/07/25 07:28:52;;;;;;;6.83;6.13;;;22.40;99.90;;;;;;4921120;29;20189;-80
2021/07/25 07:31:18;;;;;;;7.00;5.90;;;22.40;99.90;;;;;;4918093;29;20237;-79
2021/07/25 07:33:44;;;;;;;11.13;6.37;;;22.30;99.90;;;;;;4920230;29;20181;-77
2021/07/25 07:36:09;;;;;;;11.63;7.30;;;22.30;99.90;;;;;;4917501;29;20197;-77
2021/07/25 07:38:35;;;;;;;9.37;8.07;;;22.30;99.90;;;;;;4919574;29;20201;-79
2021/07/25 07:41:00;;;;;;;9.83;8.03;;;22.40;99.90;;;;;;4921275;29;20289;-78
2021/07/25 07:43:26;;;;;;;8.23;7.53;;;22.50;99.90;;;;;;4919737;29;20718;-79
2021/07/25 07:45:52;;;;;;;8.83;7.60;;;22.40;99.90;;;;;;4917861;29;20524;-78
2021/07/25 07:48:19;;;;;;;9.40;8.33;;;22.40;99.90;;;;;;4919293;29;20538;-79
2021/07/25 07:50:45;;;;;;;13.63;8.17;;;22.30;99.90;;;;;;4916361;29;21051;-78
2021/07/25 07:53:11;;;;;;;9.93;8.93;;;22.20;99.90;;;;;;4917670;29;20411;-77
2021/07/25 07:55:37;;;;;;;10.37;8.80;;;22.20;99.90;;;;;;4916665;29;20183;-76
2021/07/25 07:58:02;;;;;;;10.83;8.57;;;22.40;99.90;;;;;;4918034;29;20434;-78
2021/07/25 08:00:28;;;;;;;8.30;7.40;;;22.60;99.90;;;;;;4917957;29;20266;-78
2021/07/25 08:02:54;;;;;;;12.43;6.83;;;22.70;99.90;;;;;;4918646;29;20213;-78
2021/07/25 08:05:20;;;;;;;11.50;7.53;;;22.80;99.90;;;;;;4918302;29;20230;-78
2021/07/25 08:07:47;;;;;;;8.00;7.20;;;23.10;99.90;;;;;;4917753;29;20684;-78
2021/07/25 08:10:13;;;;;;;7.23;6.63;;;23.70;99.90;;;;;;4918112;29;20457;-78
2021/07/25 08:12:40;;;;;;;8.40;7.20;;;24.00;99.90;;;;;;4927480;29;20500;-78
2021/07/25 08:15:07;;;;;;;11.70;7.43;;;24.20;99.90;;;;;;4917655;29;20441;-76
2021/07/25 08:17:33;;;;;;;8.23;7.53;;;24.80;99.90;;;;;;4917532;29;20421;-79
2021/07/25 08:19:59;;;;;;;6.57;5.97;;;25.40;99.90;;;;;;4918912;29;20426;-79
2021/07/25 08:22:24;;;;;;;8.80;6.40;;;25.40;99.90;;;;;;4919451;29;20205;-77
2021/07/25 08:24:50;;;;;;;6.63;5.90;;;25.20;99.90;;;;;;4918967;29;20555;-79
2021/07/25 08:27:15;;;;;;;12.40;6.43;;;24.90;99.90;;;;;;4920713;29;20181;-79
2021/07/25 08:29:41;;;;;;;7.13;5.77;;;24.60;99.90;;;;;;4920717;29;20186;-79
2021/07/25 08:32:09;;;;;;;8.43;6.67;;;24.20;99.90;;;;;;4918933;29;20304;-78
2021/07/25 08:34:34;;;;;;;13.70;6.47;;;23.80;99.90;;;;;;4918965;29;20176;-79
2021/07/25 08:37:00;;;;;;;7.17;5.93;;;23.40;99.90;;;;;;4920127;29;20438;-78
2021/07/25 08:39:26;;;;;;;9.17;6.80;;;23.20;99.90;;;;;;4920276;29;20170;-79
2021/07/25 08:42:05;;;;;;;6.20;5.60;;;23.00;99.90;;;;;;4920122;29;20449;-77
2021/07/25 08:44:50;;;;;;;7.60;6.23;;;22.90;99.90;;;;;;4919467;29;20185;-79
2021/07/25 08:47:23;;;;;;;7.10;6.40;;;22.90;99.90;;;;;;4921177;29;20502;-80
2021/07/25 08:49:55;;;;;;;7.30;5.63;;;22.80;99.90;;;;;;4916890;29;20430;-80
2021/07/25 08:52:23;;;;;;;6.33;5.73;;;22.80;99.90;;;;;;4920945;29;20460;-79
2021/07/25 08:54:49;;;;;;;6.10;5.57;;;22.70;99.90;;;;;;4920149;29;20433;-80
2021/07/25 08:57:17;;;;;;;6.17;5.30;;;22.60;99.90;;;;;;4919580;29;20761;-79
2021/07/25 08:59:45;;;;;;;6.83;5.37;;;22.60;99.90;;;;;;4920468;29;20306;-78
2021/07/25 09:02:20;;;;;;;6.60;5.60;;;22.50;99.90;;;;;;4920916;29;20935;-78
2021/07/25 09:04:47;;;;;;;6.90;6.20;;;22.40;99.90;;;;;;4924720;29;20868;-78
2021/07/25 09:07:14;;;;;;;6.87;6.20;;;22.30;99.90;;;;;;4926234;29;20418;-80
2021/07/25 09:09:43;;;;;;;7.37;6.17;;;22.20;99.90;;;;;;4927216;29;20934;-78
2021/07/25 09:12:09;;;;;;;11.30;5.63;;;22.10;99.90;;;;;;4945745;29;20447;-77
2021/07/25 09:14:35;;;;;;;6.70;6.10;;;22.10;99.90;;;;;;4937878;29;20409;-76
2021/07/25 09:17:01;;;;;;;6.60;6.00;;;22.00;99.90;;;;;;4937559;29;20953;-74
2021/07/25 09:19:26;;;;;;;7.53;5.33;;;21.90;99.90;;;;;;4937738;29;20213;-79
2021/07/25 09:21:52;;;;;;;6.07;5.57;;;21.90;99.90;;;;;;4937123;29;20494;-76
2021/07/25 09:24:25;;;;;;;6.97;6.23;;;21.90;99.90;;;;;;4937845;29;20181;-79
2021/07/25 09:27:04;;;;;;;10.10;6.93;;;21.80;99.90;;;;;;4937560;29;20261;-78
2021/07/25 09:29:34;;;;;;;6.47;5.87;;;21.80;99.90;;;;;;4938118;29;20413;-76
2021/07/25 09:32:09;;;;;;;6.50;6.00;;;21.90;99.90;;;;;;4937418;29;20456;-76
2021/07/25 09:34:42;;;;;;;9.40;6.43;;;21.90;99.90;;;;;;4937002;29;20412;-75
2021/07/25 09:37:19;;;;;;;6.37;5.73;;;22.00;99.90;;;;;;4937287;29;20405;-79
2021/07/25 09:39:47;;;;;;;7.13;6.53;;;22.20;99.90;;;;;;4937648;29;20421;-78
2021/07/25 09:42:13;;;;;;;6.57;5.90;;;22.30;99.90;;;;;;4937839;29;20465;-78
2021/07/25 09:44:53;;;;;;;8.30;5.70;;;22.40;99.90;;;;;;4938441;29;20413;-78
2021/07/25 09:47:28;;;;;;;7.67;6.30;;;22.40;99.90;;;;;;4937447;29;20945;-79
2021/07/25 09:49:55;;;;;;;8.30;6.77;;;22.40;99.90;;;;;;4935295;29;20554;-76
2021/07/25 09:52:34;;;;;;;12.00;6.63;;;22.30;99.90;;;;;;4937167;29;20476;-80
2021/07/25 09:55:02;;;;;;;6.90;6.07;;;22.30;99.90;;;;;;4937111;29;20419;-80
2021/07/25 09:57:29;;;;;;;7.10;6.50;;;22.30;99.90;;;;;;4939454;29;20424;-80
2021/07/25 09:59:57;;;;;;;6.80;6.20;;;22.40;99.90;;;;;;4937136;29;20425;-75
2021/07/25 10:02:38;;;;;;;8.20;7.40;;;22.40;99.90;;;;;;4939030;29;20501;-76
2021/07/25 10:05:14;;;;;;;11.57;7.40;;;22.50;99.90;;;;;;4936367;29;20413;-80
2021/07/25 10:07:41;;;;;;;9.70;6.63;;;22.40;99.90;;;;;;4935085;29;20424;-80
2021/07/25 10:10:11;;;;;;;9.60;6.73;;;22.40;99.90;;;;;;4936487;29;20445;-79
2021/07/25 10:12:38;;;;;;;7.93;7.23;;;22.30;99.90;;;;;;4937776;29;20814;-78
2021/07/25 10:15:09;;;;;;;10.37;7.70;;;22.20;99.90;;;;;;4936644;29;20735;-79
2021/07/25 10:17:37;;;;;;;9.57;8.60;;;22.20;99.90;;;;;;4937358;29;20413;-74
2021/07/25 10:20:05;;;;;;;14.87;9.00;;;22.20;99.90;;;;;;4935366;29;20425;-76
2021/07/25 10:22:33;;;;;;;17.30;9.30;;;22.10;99.90;;;;;;4935827;29;20496;-78
2021/07/25 10:25:01;;;;;;;11.80;9.10;;;22.00;99.90;;;;;;4936436;29;20417;-80
2021/07/25 10:27:32;;;;;;;11.20;8.67;;;21.70;99.90;;;;;;4938828;29;20433;-80
2021/07/25 10:30:06;;;;;;;11.17;9.27;;;21.50;99.90;;;;;;4936283;29;20883;-77
2021/07/25 10:32:37;;;;;;;9.20;7.00;;;21.10;99.90;;;;;;4937080;29;20457;-77
2021/07/25 10:35:05;;;;;;;14.10;8.10;;;20.80;99.90;;;;;;4938355;29;20479;-80
2021/07/25 10:37:35;;;;;;;10.10;6.93;;;20.60;99.90;;;;;;4937962;28;20453;-79
2021/07/25 10:40:01;;;;;;;7.97;6.70;;;20.40;99.90;;;;;;4937810;29;20880;-79
2021/07/25 10:42:29;;;;;;;7.37;6.63;;;20.30;99.90;;;;;;4936411;29;20437;-78
2021/07/25 10:44:55;;;;;;;6.90;6.30;;;20.20;99.90;;;;;;4937314;29;20417;-76
2021/07/25 10:47:28;;;;;;;7.37;6.77;;;20.20;99.90;;;;;;4936464;29;20429;-79
2021/07/25 10:50:20;;;;;;;10.67;6.27;;;20.10;99.90;;;;;;4936586;29;20791;-75
2021/07/25 10:52:49;;;;;;;9.30;8.30;;;20.00;99.90;;;;;;4932453;29;20823;-76
2021/07/25 10:55:41;;;;;;;9.03;6.60;;;19.90;99.90;;;;;;4935771;29;20486;-75
2021/07/25 10:58:07;;;;;;;9.43;6.23;;;19.90;99.90;;;;;;4935898;29;20398;-76
2021/07/25 11:00:55;;;;;;;7.53;6.27;;;19.80;99.90;;;;;;4935321;29;20824;-78
2021/07/25 11:03:30;;;;;;;8.87;7.97;;;19.80;99.90;;;;;;4934638;29;20429;-73
2021/07/25 11:06:01;;;;;;;8.87;7.97;;;19.80;99.90;;;;;;4933841;29;20443;-75
2021/07/25 11:08:47;;;;;;;10.07;6.40;;;19.80;99.90;;;;;;4935228;29;20488;-78
2021/07/25 11:11:26;;;;;;;7.83;6.43;;;19.80;99.90;;;;;;4935373;29;20475;-75
2021/07/25 11:13:52;;;;;;;7.80;7.00;;;19.90;99.90;;;;;;4935225;29;20500;-75
2021/07/25 11:16:30;;;;;;;8.53;6.83;;;19.90;99.90;;;;;;4935032;29;20940;-76
2021/07/25 11:19:21;;;;;;;7.23;6.63;;;20.00;99.90;;;;;;4935199;29;20445;-74
2021/07/25 11:21:53;;;;;;;7.20;5.63;;;20.10;99.90;;;;;;4926247;29;20828;-78
2021/07/25 11:24:19;;;;;;;9.60;6.87;;;20.10;99.90;;;;;;4934998;29;20480;-78
2021/07/25 11:26:46;;;;;;;7.57;6.70;;;20.10;99.90;;;;;;4933453;29;20500;-78
2021/07/25 11:29:32;;;;;;;8.83;6.00;;;20.10;99.90;;;;;;4934937;29;20174;-78
2021/07/25 11:31:58;;;;;;;15.30;7.03;;;20.30;99.90;;;;;;4933421;29;20483;-74
2021/07/25 11:34:31;;;;;;;8.00;7.07;;;20.40;99.90;;;;;;4932221;29;20409;-78
2021/07/25 11:37:02;;;;;;;7.00;6.20;;;20.50;99.90;;;;;;4935751;29;20915;-79
2021/07/25 11:39:28;;;;;;;6.57;5.83;;;20.50;99.90;;;;;;4933923;29;20432;-79
2021/07/25 11:41:54;;;;;;;8.30;7.00;;;20.50;99.90;;;;;;4936147;29;20973;-79
2021/07/25 11:44:26;;;;;;;7.60;6.90;;;20.60;99.90;;;;;;4937891;29;20417;-80
2021/07/25 11:46:52;;;;;;;6.97;6.30;;;20.70;99.90;;;;;;4934977;29;20188;-78
2021/07/25 11:49:28;;;;;;;6.70;6.07;;;20.70;99.90;;;;;;4935722;29;20504;-80
2021/07/25 11:51:56;;;;;;;7.57;6.03;;;20.70;99.90;;;;;;4932571;29;20464;-78
2021/07/25 11:54:25;;;;;;;7.83;7.00;;;20.80;99.90;;;;;;4935393;29;20663;-79
2021/07/25 11:56:55;;;;;;;6.97;5.93;;;20.90;99.90;;;;;;4933598;29;20440;-78
2021/07/25 11:59:20;;;;;;;8.53;6.77;;;20.90;99.90;;;;;;4934125;29;20472;-77
2021/07/25 12:01:46;;;;;;;6.60;6.03;;;20.90;99.90;;;;;;4932734;29;20449;-77
2021/07/25 12:04:40;;;;;;;7.13;6.40;;;20.90;99.90;;;;;;4934105;29;20299;-77
2021/07/25 12:07:12;;;;;;;10.80;6.70;;;21.00;99.90;;;;;;4934419;29;20280;-76
2021/07/25 12:09:41;;;;;;;7.30;6.57;;;21.10;99.90;;;;;;4933967;29;20417;-77
2021/07/25 12:12:11;;;;;;;6.73;5.87;;;21.10;99.90;;;;;;4932930;29;20551;-78
2021/07/25 12:14:51;;;;;;;9.67;7.33;;;21.10;99.90;;;;;;4934329;29;20974;-75
2021/07/25 12:17:39;;;;;;;13.87;7.17;;;21.00;99.90;;;;;;4933474;28;20425;-80
2021/07/25 12:20:17;;;;;;;16.63;7.90;;;21.00;99.90;;;;;;4929398;29;20421;-78
2021/07/25 12:22:56;;;;;;;9.97;7.60;;;20.90;99.90;;;;;;4932269;29;20457;-78
2021/07/25 12:25:22;;;;;;;7.57;6.77;;;20.80;99.90;;;;;;4931790;29;20413;-78
2021/07/25 12:28:05;;;;;;;9.20;7.30;;;20.70;99.90;;;;;;4934578;29;20413;-80
2021/07/25 12:30:44;;;;;;;8.53;7.37;;;20.70;99.90;;;;;;4934716;29;20460;-80
2021/07/25 12:33:11;;;;;;;10.40;8.23;;;20.70;99.90;;;;;;4934465;29;20440;-79
2021/07/25 12:35:36;;;;;;;10.33;8.93;;;20.60;99.90;;;;;;4934165;29;20544;-78
2021/07/25 12:38:09;;;;;;;9.53;8.63;;;20.60;99.90;;;;;;4934634;29;20496;-78
2021/07/25 12:40:46;;;;;;;8.90;6.60;;;20.60;99.90;;;;;;4937135;29;20271;-78
2021/07/25 12:43:19;;;;;;;7.00;6.40;;;20.60;99.90;;;;;;4937527;29;20421;-79
2021/07/25 12:45:47;;;;;;;6.97;6.20;;;20.60;99.90;;;;;;4938651;29;20428;-79
2021/07/25 12:48:32;;;;;;;7.50;5.50;;;20.60;99.90;;;;;;4937488;29;20931;-80
2021/07/25 12:53:51;;;;;;;6.97;5.73;;;20.60;99.90;;;;;;4937138;29;20421;-77
2021/07/25 12:56:25;;;;;;;5.87;5.40;;;20.60;99.90;;;;;;4936420;29;20918;-79
2021/07/25 12:58:54;;;;;;;8.20;5.77;;;20.70;99.90;;;;;;4937264;29;20423;-79
2021/07/25 13:03:57;;;;;;;6.00;5.50;;;20.70;99.90;;;;;;4935026;29;20425;-79
2021/07/25 13:06:40;;;;;;;7.70;6.20;;;20.90;99.90;;;;;;4934579;29;20413;-77
2021/07/25 13:09:10;;;;;;;6.50;5.90;;;21.00;99.90;;;;;;4935172;29;20419;-78
2021/07/25 13:11:41;;;;;;;5.50;4.77;;;21.20;99.90;;;;;;4934398;29;20560;-78
2021/07/25 13:14:08;;;;;;;5.67;4.93;;;21.30;99.90;;;;;;4935115;29;20410;-79
2021/07/25 13:16:35;;;;;;;5.97;5.47;;;21.50;99.90;;;;;;4935144;29;20425;-79
2021/07/25 13:19:01;;;;;;;7.40;4.87;;;21.70;99.90;;;;;;4936171;29;20513;-78
2021/07/25 13:21:28;;;;;;;5.63;5.03;;;21.90;99.90;;;;;;4934479;29;20958;-78
2021/07/25 13:23:54;;;;;;;6.10;5.53;;;22.10;99.90;;;;;;4934529;29;20429;-79
2021/07/25 13:26:20;;;;;;;6.63;6.03;;;22.10;99.90;;;;;;4935157;29;20465;-79
2021/07/25 13:28:46;;;;;;;7.07;5.80;;;22.10;99.90;;;;;;4936118;29;20413;-78
2021/07/25 13:31:13;;;;;;;5.40;4.90;;;22.10;99.90;;;;;;4935421;29;20300;-76
2021/07/25 13:33:39;;;;;;;6.27;5.70;;;22.00;99.90;;;;;;4934790;29;20439;-76
2021/07/25 13:36:06;;;;;;;6.53;5.93;;;22.10;99.90;;;;;;4948127;29;20408;-75
2021/07/25 13:38:33;;;;;;;5.97;5.47;;;22.10;99.90;;;;;;4953652;29;20256;-77
2021/07/25 13:40:59;;;;;;;8.70;5.63;;;22.10;99.90;;;;;;4953241;29;20935;-76
2021/07/25 13:43:26;;;;;;;6.63;6.03;;;22.10;99.90;;;;;;4954915;28;20496;-78
2021/07/25 13:46:00;;;;;;;10.70;6.50;;;22.30;99.90;;;;;;4956923;29;20276;-77
2021/07/25 13:48:36;;;;;;;6.63;5.80;;;22.30;99.90;;;;;;4957205;29;20645;-78
2021/07/25 13:51:13;;;;;;;7.43;6.73;;;22.30;99.90;;;;;;4956149;29;20559;-78
2021/07/25 13:53:40;;;;;;;8.00;6.93;;;22.30;99.90;;;;;;4955887;29;20415;-77
2021/07/25 13:56:10;;;;;;;7.50;6.80;;;22.40;99.90;;;;;;4954829;29;20432;-77
2021/07/25 13:58:36;;;;;;;8.00;6.57;;;22.40;99.90;;;;;;4955083;29;20435;-77
2021/07/25 14:01:01;;;;;;;7.40;6.60;;;22.40;99.90;;;;;;4954729;29;20547;-76
2021/07/25 14:03:27;;;;;;;6.23;5.37;;;22.50;99.90;;;;;;4956002;29;20231;-76
2021/07/25 14:05:52;;;;;;;7.67;5.93;;;22.50;99.90;;;;;;4956016;29;20185;-78
2021/07/25 14:08:18;;;;;;;6.50;5.97;;;22.60;99.90;;;;;;4956177;29;20181;-77
2021/07/25 14:10:44;;;;;;;7.07;6.40;;;22.60;99.90;;;;;;4955651;29;20200;-76
2021/07/25 14:13:09;;;;;;;6.77;6.17;;;22.60;99.90;;;;;;4956471;29;20243;-79
2021/07/25 14:15:36;;;;;;;10.27;6.70;;;22.60;99.90;;;;;;4955258;29;20477;-77
2021/07/25 14:18:06;;;;;;;9.30;6.30;;;22.60;99.90;;;;;;4955211;29;20308;-76
2021/07/25 14:20:40;;;;;;;7.23;6.57;;;22.60;99.90;;;;;;4955313;29;20425;-78
2021/07/25 14:23:10;;;;;;;6.50;6.00;;;22.60;99.90;;;;;;4956990;29;20439;-77
2021/07/25 14:25:44;;;;;;;8.23;6.50;;;22.80;99.90;;;;;;4956238;28;20431;-80
2021/07/25 14:28:10;;;;;;;6.70;6.10;;;22.70;99.90;;;;;;4954606;29;20451;-78
2021/07/25 14:30:35;;;;;;;6.37;5.87;;;22.80;99.90;;;;;;4954916;29;20459;-74
2021/07/25 14:33:01;;;;;;;7.47;6.77;;;22.90;99.90;;;;;;4954918;29;20793;-75
2021/07/25 14:35:26;;;;;;;6.90;6.30;;;22.90;99.90;;;;;;4955212;29;20184;-77
2021/07/25 14:37:52;;;;;;;7.13;5.90;;;22.90;99.90;;;;;;4955400;29;20191;-73
2021/07/25 14:40:17;;;;;;;9.70;6.50;;;22.90;99.90;;;;;;4955047;29;20184;-77
2021/07/25 14:42:43;;;;;;;8.57;7.30;;;23.00;99.90;;;;;;4953292;29;20208;-73
2021/07/25 14:45:09;;;;;;;6.53;5.97;;;22.90;99.90;;;;;;4955076;29;20188;-76
2021/07/25 14:47:36;;;;;;;9.13;5.60;;;22.90;99.90;;;;;;4953344;29;20220;-74
2021/07/25 14:50:03;;;;;;;7.30;6.70;;;23.00;99.90;;;;;;4954692;29;20847;-76
2021/07/25 14:52:28;;;;;;;6.70;6.10;;;23.00;99.90;;;;;;4954914;29;20438;-77
2021/07/25 14:54:54;;;;;;;8.23;6.50;;;23.10;99.90;;;;;;4953865;28;20439;-77
2021/07/25 14:57:19;;;;;;;7.40;5.87;;;23.30;99.90;;;;;;4954990;29;20181;-75
2021/07/25 14:59:45;;;;;;;7.13;6.43;;;23.40;99.90;;;;;;4954422;29;20538;-76
2021/07/25 15:02:10;;;;;;;6.43;5.83;;;23.50;99.90;;;;;;4954131;29;20843;-77
2021/07/25 15:04:36;;;;;;;4.90;4.50;;;23.60;99.90;;;;;;4954399;29;20224;-75
2021/07/25 15:07:03;;;;;;;5.80;5.30;;;23.60;99.90;;;;;;4954443;29;20651;-75
2021/07/25 15:09:28;;;;;;;10.93;5.37;;;23.60;99.90;;;;;;4953047;29;20246;-75
2021/07/25 15:11:54;;;;;;;6.63;5.80;;;23.60;99.90;;;;;;4954177;29;20594;-75
2021/07/25 15:14:20;;;;;;;5.80;5.30;;;23.70;99.90;;;;;;4954439;29;20185;-77
2021/07/25 15:16:46;;;;;;;6.50;4.87;;;23.70;99.90;;;;;;4953074;29;20571;-78
2021/07/25 15:19:12;;;;;;;3.80;3.57;;;23.60;99.90;;;;;;4954668;29;20428;-77
2021/07/25 15:21:41;;;;;;;4.10;3.80;;;23.60;99.90;;;;;;4954121;29;20436;-77
2021/07/25 15:24:06;;;;;;;5.40;4.63;;;23.70;99.90;;;;;;4954262;29;20184;-78
2021/07/25 15:26:32;;;;;;;4.00;3.17;;;23.70;99.90;;;;;;4954131;29;20416;-78
2021/07/25 15:28:57;;;;;;;4.37;3.20;;;23.60;99.90;;;;;;4954101;29;20263;-77
2021/07/25 15:31:23;;;;;;;3.47;3.00;;;23.50;99.90;;;;;;4953938;28;20443;-76
2021/07/25 15:33:49;;;;;;;5.23;3.60;;;23.50;99.90;;;;;;4954302;29;20228;-76
2021/07/25 15:36:16;;;;;;;3.23;3.00;;;23.40;99.90;;;;;;4933565;29;20188;-74
2021/07/25 15:38:43;;;;;;;2.87;2.77;;;23.30;99.90;;;;;;4934570;29;20776;-73
2021/07/25 15:41:08;;;;;;;2.77;2.57;;;23.30;99.90;;;;;;4934502;29;20528;-73
2021/07/25 15:43:35;;;;;;;3.00;2.37;;;23.20;99.90;;;;;;4934397;29;20456;-73
2021/07/25 15:46:06;;;;;;;3.10;2.80;;;23.20;99.90;;;;;;4933713;29;20717;-73
2021/07/25 15:48:32;;;;;;;3.07;2.87;;;23.20;99.90;;;;;;4933178;29;20429;-72
2021/07/25 15:50:57;;;;;;;3.17;2.87;;;23.10;99.90;;;;;;4931534;29;20484;-73
2021/07/25 15:53:23;;;;;;;4.67;4.27;;;23.10;99.90;;;;;;4934761;29;20546;-74
2021/07/25 15:55:49;;;;;;;3.80;3.30;;;23.10;99.90;;;;;;4934478;29;20186;-74
2021/07/25 15:58:14;;;;;;;3.20;2.40;;;23.10;99.90;;;;;;4934515;29;20264;-73
2021/07/25 16:00:40;;;;;;;3.00;2.80;;;23.10;99.90;;;;;;4934431;29;20658;-71
2021/07/25 16:03:06;;;;;;;3.93;2.80;;;23.10;99.90;;;;;;4934389;29;20224;-73
2021/07/25 16:05:31;;;;;;;3.80;2.20;;;23.10;99.90;;;;;;4934243;29;20256;-72
2021/07/25 16:07:57;;;;;;;2.40;2.20;;;23.10;99.90;;;;;;4932543;29;20209;-75
2021/07/25 16:10:23;;;;;;;2.43;2.33;;;23.00;99.90;;;;;;4934314;29;20205;-74
2021/07/25 16:12:48;;;;;;;3.27;2.60;;;23.00;99.90;;;;;;4934083;29;21038;-73
2021/07/25 16:15:15;;;;;;;3.03;2.83;;;22.90;99.90;;;;;;4932967;29;20184;-74
2021/07/25 16:17:41;;;;;;;5.47;2.70;;;22.90;99.90;;;;;;4934161;29;20201;-76
2021/07/25 16:20:07;;;;;;;3.53;2.80;;;23.00;99.90;;;;;;4934177;29;21084;-73
2021/07/25 16:22:33;;;;;;;3.20;2.90;;;22.90;99.90;;;;;;4934571;29;20201;-72
2021/07/25 16:24:58;;;;;;;11.50;4.93;;;22.90;99.90;;;;;;4934184;29;20439;-72
2021/07/25 16:27:24;;;;;;;3.23;2.93;;;22.90;99.90;;;;;;4934381;29;20644;-75
2021/07/25 16:29:49;;;;;;;3.07;2.77;;;22.90;99.90;;;;;;4933753;29;20201;-75
2021/07/25 16:32:15;;;;;;;3.30;2.60;;;22.90;99.90;;;;;;4933923;29;20706;-74
2021/07/25 16:34:41;;;;;;;2.70;2.50;;;22.90;99.90;;;;;;4933599;29;20217;-75
2021/07/25 16:37:06;;;;;;;5.80;2.63;;;22.90;99.90;;;;;;4933712;29;20189;-75
2021/07/25 16:39:32;;;;;;;3.00;2.80;;;23.00;99.90;;;;;;4934080;29;20173;-75
2021/07/25 16:41:58;;;;;;;3.37;3.07;;;23.00;99.90;;;;;;4933685;29;20197;-73
2021/07/25 16:44:23;;;;;;;3.43;2.87;;;23.00;99.90;;;;;;4933744;29;20941;-76
2021/07/25 16:46:49;;;;;;;3.10;2.77;;;23.10;99.90;;;;;;4933602;29;20193;-75
2021/07/25 16:49:14;;;;;;;2.87;2.67;;;23.10;99.90;;;;;;4933893;29;20189;-75
2021/07/25 16:51:41;;;;;;;3.87;3.33;;;23.20;99.90;;;;;;4933535;29;20243;-75
2021/07/25 16:54:06;;;;;;;2.90;2.63;;;23.20;99.90;;;;;;4933786;29;20188;-74
2021/07/25 16:56:32;;;;;;;3.13;2.90;;;23.20;99.90;;;;;;4933890;29;20418;-72
2021/07/25 16:58:57;;;;;;;2.50;2.30;;;23.20;99.90;;;;;;4933195;29;20181;-74
2021/07/25 17:01:25;;;;;;;2.60;2.50;;;23.10;99.90;;;;;;4933810;29;20567;-75
2021/07/25 17:03:50;;;;;;;3.33;3.10;;;23.10;99.90;;;;;;4933533;29;20173;-75
2021/07/25 17:06:16;;;;;;;4.47;3.30;;;23.00;99.90;;;;;;4933621;29;20425;-74
2021/07/25 17:08:41;;;;;;;6.17;2.90;;;23.00;99.90;;;;;;4933410;29;20181;-74
2021/07/25 17:11:12;;;;;;;3.03;2.77;;;22.90;99.90;;;;;;4932828;29;20220;-71
2021/07/25 17:13:39;;;;;;;3.10;2.80;;;22.90;99.90;;;;;;4941377;29;20223;-71
2021/07/25 17:16:05;;;;;;;5.40;3.73;;;22.80;99.90;;;;;;4933325;29;20769;-72
2021/07/25 17:18:30;;;;;;;3.20;2.90;;;22.80;99.90;;;;;;4934832;29;20417;-71
2021/07/25 17:20:56;;;;;;;5.87;3.07;;;22.80;99.90;;;;;;4937067;29;20208;-73
2021/07/25 17:23:21;;;;;;;4.80;3.20;;;22.70;99.90;;;;;;4937757;29;20205;-74
2021/07/25 17:25:47;;;;;;;4.63;2.87;;;22.60;99.90;;;;;;4937504;29;20264;-72